Skip Navigation LinksHome page > Weather > Current weather Skip Navigation Links

Current Weather

Sarh, Chad

For information only: do not use for flight planning or navigation.
Latest weather
Observation time Friday, February 12, 2016 8:00 AM WAT
Local time Friday, February 12, 2016 8:34 AM WAT
Flight conditions Visual Meteorological Conditions
Winds
Wind speed calm
Visibility 6.2 mi.
Sky condition
Ceiling unlimited
Sky clear
Temperature 73°F
Dewpoint 32°F
Altimeter 30.00 in.Hg
Derived measurements
Relative humidity 22%
Density altitude 1299 ft.
Remarks
Ceiling and visibility OK.
METAR FTTA 120700Z 00000KT CAVOK 23/00 Q1016

Settings

Location code

InnerDrive.Weather 4.0.5722.1 Release CLR 4.0.30319.34209
Copyright ©2015 Inner Drive Technology. All rights reserved. Portions Copyright ©1986-2015 David Braverman.

Find weather

Site navigation


Skip Navigation Links

Place info

Page info

PayPal - The safer, easier way to pay online!

Return home.

Copyright ©2016 Inner Drive Technology. Purveyors of fine, hand-crafted computer software. Page printed 2016-02-12T07:34:34 UTC.